createdAt,value
2022-08-09T00:00:21.724Z,3.72
2022-08-09T00:03:11.007Z,3.83
2022-08-09T00:06:17.736Z,3.95
2022-08-09T00:08:48.505Z,3.50
2022-08-09T00:11:24.940Z,3.83
2022-08-09T00:13:55.690Z,3.60
2022-08-09T00:16:26.223Z,3.72
2022-08-09T00:19:09.467Z,3.67
2022-08-09T00:21:56.317Z,3.75
2022-08-09T00:24:27.944Z,4.05
2022-08-09T00:26:56.250Z,4.03
2022-08-09T00:30:16.565Z,3.92
2022-08-09T00:32:14.140Z,4.03
2022-08-09T00:34:53.257Z,4.22
2022-08-09T00:37:20.974Z,4.00
2022-08-09T00:40:09.027Z,3.45
2022-08-09T00:44:14.158Z,4.68
2022-08-09T00:45:23.760Z,4.30
2022-08-09T00:47:53.157Z,3.85
2022-08-09T00:50:24.354Z,3.88
2022-08-09T00:52:55.570Z,3.90
2022-08-09T00:56:03.969Z,3.80
2022-08-09T00:58:14.664Z,3.95
2022-08-09T01:00:53.365Z,4.00
2022-08-09T01:03:48.370Z,4.25
2022-08-09T01:06:53.421Z,3.72
2022-08-09T01:09:23.324Z,3.90
2022-08-09T01:12:30.769Z,4.32
2022-08-09T01:15:09.913Z,4.13
2022-08-09T01:18:03.822Z,4.10
2022-08-09T01:20:53.248Z,3.97
2022-08-09T01:24:01.721Z,4.00
2022-08-09T01:26:53.682Z,4.47
2022-08-09T01:29:40.887Z,4.03
2022-08-09T01:32:31.281Z,4.60
2022-08-09T01:35:07.072Z,4.72
2022-08-09T01:38:08.418Z,4.18
2022-08-09T01:40:34.174Z,4.35
2022-08-09T01:43:05.600Z,4.03
2022-08-09T01:45:35.538Z,4.03
2022-08-09T01:48:15.438Z,4.72
2022-08-09T01:50:48.452Z,4.05
2022-08-09T01:53:19.629Z,4.25
2022-08-09T01:55:48.533Z,4.72
2022-08-09T01:58:16.700Z,4.22
2022-08-09T02:00:46.215Z,4.50
2022-08-09T02:03:15.771Z,4.25
2022-08-09T02:06:03.653Z,4.65
2022-08-09T02:08:40.714Z,4.50
2022-08-09T02:11:21.256Z,4.20
2022-08-09T02:14:06.599Z,4.70
2022-08-09T02:16:59.516Z,4.70
2022-08-09T02:19:25.166Z,4.07
2022-08-09T02:22:15.393Z,4.47
2022-08-09T02:24:51.815Z,4.75
2022-08-09T02:27:21.416Z,4.57
2022-08-09T02:30:09.985Z,4.72
2022-08-09T02:32:41.964Z,4.40
2022-08-09T02:35:17.848Z,5.13
2022-08-09T02:37:51.204Z,4.53
2022-08-09T02:40:26.933Z,4.18
2022-08-09T02:42:59.920Z,4.45
2022-08-09T02:45:33.495Z,4.32
2022-08-09T02:48:06.352Z,4.13
2022-08-09T02:50:56.380Z,4.35
2022-08-09T02:53:31.760Z,3.95
2022-08-09T02:56:02.959Z,3.85
2022-08-09T02:58:36.414Z,4.38
2022-08-09T03:01:11.017Z,4.00
2022-08-09T03:04:18.966Z,4.30
2022-08-09T03:06:31.453Z,4.57
2022-08-09T03:09:01.248Z,4.68
2022-08-09T03:11:29.787Z,4.30
2022-08-09T03:14:18.809Z,4.28
2022-08-09T03:16:54.726Z,4.43
2022-08-09T03:19:52.580Z,4.32
2022-08-09T03:22:25.665Z,4.05
2022-08-09T03:25:06.353Z,4.53
2022-08-09T03:27:51.935Z,3.78
2022-08-09T03:30:30.026Z,4.22
2022-08-09T03:33:17.443Z,4.35
2022-08-09T03:36:12.974Z,4.20
2022-08-09T03:38:42.742Z,5.05
2022-08-09T03:41:15.389Z,4.50
2022-08-09T03:44:02.906Z,4.90
2022-08-09T03:46:32.504Z,3.83
2022-08-09T03:49:04.162Z,4.25
2022-08-09T03:51:56.442Z,4.32
2022-08-09T03:54:31.238Z,4.18
2022-08-09T03:57:04.414Z,4.13
2022-08-09T03:59:54.871Z,4.15
2022-08-09T04:02:28.677Z,3.63
2022-08-09T04:04:59.006Z,4.28
2022-08-09T04:07:33.646Z,3.55
2022-08-09T04:10:20.471Z,3.70
2022-08-09T04:15:40.523Z,4.20
2022-08-09T04:18:17.997Z,4.13
2022-08-09T04:20:47.641Z,3.88
2022-08-09T04:23:17.033Z,4.57
2022-08-09T04:25:49.859Z,4.50
2022-08-09T04:28:36.313Z,4.32
2022-08-09T04:31:08.664Z,4.35
2022-08-09T04:33:47.635Z,4.20
2022-08-09T04:36:26.125Z,4.28
2022-08-09T04:38:54.560Z,3.95
2022-08-09T04:41:23.610Z,3.85
2022-08-09T04:44:05.145Z,4.10
2022-08-09T04:46:57.734Z,4.25
2022-08-09T04:49:40.309Z,4.28
2022-08-09T04:52:12.029Z,4.15
2022-08-09T04:54:48.336Z,3.85
2022-08-09T04:57:16.073Z,4.32
2022-08-09T04:59:52.293Z,3.95
2022-08-09T05:02:19.842Z,3.75
2022-08-09T05:04:47.578Z,4.70
2022-08-09T05:07:19.273Z,4.18
2022-08-09T05:09:50.054Z,3.20
2022-08-09T05:12:17.675Z,4.30
2022-08-09T05:14:46.028Z,3.80
2022-08-09T05:18:39.449Z,4.63
2022-08-09T05:20:01.027Z,4.25
2022-08-09T05:22:35.749Z,3.60
2022-08-09T05:25:16.964Z,4.10
2022-08-09T05:27:48.041Z,4.03
2022-08-09T05:30:17.590Z,4.05
2022-08-09T05:32:50.790Z,4.05
2022-08-09T05:35:18.935Z,4.05
2022-08-09T05:37:51.238Z,3.85
2022-08-09T05:40:18.765Z,4.30
2022-08-09T05:42:47.366Z,4.05
2022-08-09T05:45:14.946Z,4.50
2022-08-09T05:47:51.593Z,4.10
2022-08-09T05:50:36.151Z,4.30
2022-08-09T05:53:21.601Z,4.07
2022-08-09T05:55:59.770Z,3.97
2022-08-09T05:58:29.084Z,4.32
2022-08-09T06:00:56.550Z,4.13
2022-08-09T06:03:34.628Z,4.65
2022-08-09T06:06:04.573Z,3.80
2022-08-09T06:08:34.085Z,3.83
2022-08-09T06:11:01.570Z,3.90
2022-08-09T06:13:44.818Z,4.35
2022-08-09T06:16:14.922Z,4.43
2022-08-09T06:18:43.879Z,3.85
2022-08-09T06:21:11.991Z,4.63
2022-08-09T06:23:57.994Z,4.53
2022-08-09T06:26:29.193Z,4.18
2022-08-09T06:29:00.481Z,3.85
2022-08-09T06:31:30.782Z,5.32
2022-08-09T06:33:59.308Z,4.60
2022-08-09T06:36:27.220Z,5.18
2022-08-09T06:38:56.920Z,4.75
2022-08-09T06:42:00.495Z,4.78
2022-08-09T06:44:18.333Z,4.10
2022-08-09T06:46:49.831Z,5.60
2022-08-09T06:49:44.752Z,4.20
2022-08-09T06:52:15.696Z,3.78
2022-08-09T06:54:44.137Z,4.03
2022-08-09T06:57:14.483Z,3.40
2022-08-09T07:00:52.617Z,3.65
2022-08-09T07:02:31.690Z,3.67
2022-08-09T07:05:01.243Z,3.50
2022-08-09T07:08:00.961Z,3.80
2022-08-09T07:10:24.071Z,3.78
2022-08-09T07:12:58.347Z,4.10
2022-08-09T07:16:36.226Z,3.85
2022-08-09T07:18:15.034Z,4.05
2022-08-09T07:20:43.532Z,4.28
2022-08-09T07:23:18.549Z,4.22
2022-08-09T07:25:52.065Z,4.13
2022-08-09T07:30:56.392Z,3.80
2022-08-09T07:33:24.049Z,4.35
2022-08-09T07:35:53.552Z,3.47
2022-08-09T07:38:23.448Z,4.10
2022-08-09T07:41:08.241Z,3.85
2022-08-09T07:43:49.669Z,3.42
2022-08-09T07:46:24.310Z,3.70
2022-08-09T07:48:59.504Z,3.22
2022-08-09T07:52:05.713Z,3.72
2022-08-09T07:54:27.593Z,3.33
2022-08-09T07:56:55.924Z,3.42
2022-08-09T07:59:25.236Z,3.40
2022-08-09T08:02:01.773Z,3.53
2022-08-09T08:04:32.250Z,3.45
2022-08-09T08:07:14.972Z,3.53
2022-08-09T08:10:04.775Z,3.58
2022-08-09T08:12:42.880Z,3.53
2022-08-09T08:15:16.802Z,3.40
2022-08-09T08:17:54.198Z,3.50
2022-08-09T08:20:30.768Z,3.25
2022-08-09T08:23:15.938Z,3.00
2022-08-09T08:25:48.498Z,3.05
2022-08-09T08:28:32.175Z,3.55
2022-08-09T08:33:53.784Z,3.30
2022-08-09T08:36:29.539Z,2.70
2022-08-09T08:39:00.060Z,2.80
2022-08-09T08:42:51.294Z,2.55
2022-08-09T08:45:36.710Z,2.70
2022-08-09T08:48:05.696Z,3.17
2022-08-09T08:50:33.890Z,3.45
2022-08-09T08:53:02.543Z,3.20
2022-08-09T08:55:32.261Z,9.30
2022-08-09T08:58:00.150Z,2.90
2022-08-09T09:00:34.392Z,2.60
2022-08-09T09:03:11.634Z,2.83
2022-08-09T09:05:58.722Z,3.08
2022-08-09T09:08:41.002Z,2.78
2022-08-09T09:11:17.376Z,2.50
2022-08-09T09:13:56.695Z,2.40
2022-08-09T09:16:30.677Z,2.30
2022-08-09T09:22:11.858Z,2.13
2022-08-09T09:26:01.042Z,2.25
2022-08-09T09:28:05.426Z,2.72
2022-08-09T09:30:53.689Z,2.25
2022-08-09T09:33:21.960Z,2.30
2022-08-09T09:36:20.922Z,2.20
2022-08-09T09:38:57.413Z,2.20
2022-08-09T09:41:33.324Z,2.38
2022-08-09T09:44:11.889Z,2.15
2022-08-09T09:46:50.796Z,2.28
2022-08-09T09:49:32.310Z,2.25
2022-08-09T09:52:16.759Z,2.35
2022-08-09T09:55:28.188Z,2.10
2022-08-09T09:58:17.186Z,2.20
2022-08-09T10:01:04.735Z,2.47
2022-08-09T10:03:57.777Z,2.58
2022-08-09T10:06:32.051Z,2.40
2022-08-09T10:11:59.835Z,2.22
2022-08-09T10:14:32.944Z,2.50
2022-08-09T10:17:38.874Z,2.88
2022-08-09T10:20:00.145Z,3.40
2022-08-09T10:22:39.153Z,3.13
2022-08-09T10:25:12.205Z,3.17
2022-08-09T10:27:57.329Z,2.80
2022-08-09T10:34:04.558Z,2.70
2022-08-09T10:36:11.768Z,2.90
2022-08-09T10:38:56.070Z,2.85
2022-08-09T10:41:25.735Z,2.65
2022-08-09T10:43:59.066Z,3.13
2022-08-09T10:46:57.304Z,2.60
2022-08-09T10:49:51.418Z,2.60
2022-08-09T10:52:27.916Z,3.83
2022-08-09T10:54:56.276Z,2.75
2022-08-09T10:57:37.680Z,2.80
2022-08-09T11:00:31.420Z,2.55
2022-08-09T11:03:13.192Z,2.80
2022-08-09T11:06:12.573Z,2.75
2022-08-09T11:08:48.005Z,2.70
2022-08-09T11:11:19.929Z,2.65
2022-08-09T11:14:28.321Z,2.58
2022-08-09T11:17:00.093Z,2.58
2022-08-09T11:20:11.348Z,2.67
2022-08-09T11:25:18.094Z,2.80
2022-08-09T11:28:05.325Z,2.45
2022-08-09T11:30:38.087Z,2.60
2022-08-09T11:33:06.240Z,2.10
2022-08-09T11:36:01.273Z,2.63
2022-08-09T11:38:34.101Z,2.40
2022-08-09T11:41:16.175Z,2.60
2022-08-09T11:43:49.168Z,2.42
2022-08-09T11:48:56.963Z,2.78
2022-08-09T11:53:02.225Z,2.47
2022-08-09T11:54:27.669Z,2.42
2022-08-09T11:57:55.521Z,2.50
2022-08-09T12:00:27.227Z,2.35
2022-08-09T12:02:57.556Z,2.72
2022-08-09T12:05:37.972Z,2.78
2022-08-09T12:08:12.132Z,2.70
2022-08-09T12:10:48.287Z,2.80
2022-08-09T12:14:07.823Z,2.53
2022-08-09T12:16:30.766Z,2.92
2022-08-09T12:19:09.620Z,2.60
2022-08-09T12:21:48.593Z,2.70
2022-08-09T12:24:24.590Z,2.72
2022-08-09T12:28:59.035Z,2.38
2022-08-09T12:29:59.999Z,2.15
2022-08-09T12:32:32.177Z,2.50
2022-08-09T12:35:04.747Z,2.10
2022-08-09T12:37:50.600Z,2.38
2022-08-09T12:40:23.281Z,2.67
2022-08-09T12:42:54.266Z,2.45
2022-08-09T12:45:34.267Z,2.63
2022-08-09T12:48:10.712Z,2.80
2022-08-09T12:50:48.920Z,2.45
2022-08-09T12:53:37.008Z,2.42
2022-08-09T12:56:40.099Z,2.20
2022-08-09T12:59:16.903Z,2.67
2022-08-09T13:01:49.785Z,2.30
2022-08-09T13:04:37.196Z,2.40
2022-08-09T13:07:19.697Z,2.45
2022-08-09T13:09:52.867Z,2.83
2022-08-09T13:12:29.513Z,2.92
2022-08-09T13:15:08.611Z,2.80
2022-08-09T13:18:03.366Z,2.88
2022-08-09T13:20:37.455Z,2.35
2022-08-09T13:24:16.389Z,2.73
2022-08-09T13:26:06.730Z,2.72
2022-08-09T13:28:39.529Z,2.47
2022-08-09T13:32:14.481Z,2.88
2022-08-09T13:33:57.586Z,2.53
2022-08-09T13:36:41.713Z,2.75
2022-08-09T13:39:34.385Z,2.80
2022-08-09T13:42:12.519Z,2.60
2022-08-09T13:44:42.828Z,2.78
2022-08-09T13:47:30.983Z,2.72
2022-08-09T13:50:18.015Z,2.33
2022-08-09T13:52:57.737Z,2.92
2022-08-09T13:55:28.994Z,2.60
2022-08-09T13:57:59.343Z,2.63
2022-08-09T14:00:29.479Z,2.78
2022-08-09T14:03:04.535Z,3.17
2022-08-09T14:05:57.299Z,3.00
2022-08-09T14:08:28.297Z,3.58
2022-08-09T14:10:57.255Z,2.97
2022-08-09T14:14:16.368Z,3.25
2022-08-09T14:16:16.334Z,2.83
2022-08-09T14:18:49.631Z,2.80
2022-08-09T14:21:21.098Z,3.08
2022-08-09T14:23:53.650Z,2.90
2022-08-09T14:26:32.165Z,2.95
2022-08-09T14:30:04.182Z,2.85
2022-08-09T14:31:57.530Z,3.45
2022-08-09T14:34:27.534Z,2.70
2022-08-09T14:37:07.488Z,2.55
2022-08-09T14:39:46.978Z,2.97
2022-08-09T14:42:30.530Z,2.77
2022-08-09T14:46:46.095Z,3.55
2022-08-09T14:48:00.235Z,3.40
2022-08-09T14:50:35.188Z,2.60
2022-08-09T14:53:11.455Z,3.03
2022-08-09T14:55:49.817Z,2.75
2022-08-09T14:58:18.677Z,2.88
2022-08-09T15:00:48.442Z,2.85
2022-08-09T15:03:20.446Z,2.70
2022-08-09T15:05:52.537Z,2.78
2022-08-09T15:08:24.618Z,2.75
2022-08-09T15:11:00.979Z,2.67
2022-08-09T15:13:56.042Z,2.28
2022-08-09T15:16:17.562Z,2.67
2022-08-09T15:18:48.286Z,2.95
2022-08-09T15:21:54.744Z,2.80
2022-08-09T15:24:12.771Z,3.00
2022-08-09T15:26:46.583Z,3.03
2022-08-09T15:30:48.802Z,2.65
2022-08-09T15:32:02.790Z,2.60
2022-08-09T15:34:34.770Z,3.03
2022-08-09T15:37:37.102Z,2.90
2022-08-09T15:40:11.790Z,2.85
2022-08-09T15:42:40.752Z,2.45
2022-08-09T15:45:13.143Z,2.80
2022-08-09T15:47:52.807Z,2.80
2022-08-09T15:50:29.159Z,2.55
2022-08-09T15:53:06.034Z,2.83
2022-08-09T15:56:18.083Z,2.88
2022-08-09T15:58:27.100Z,3.03
2022-08-09T16:03:29.428Z,2.70
2022-08-09T16:06:07.169Z,2.58
2022-08-09T16:08:56.294Z,2.88
2022-08-09T16:11:27.141Z,2.97
2022-08-09T16:14:02.864Z,3.05
2022-08-09T16:16:37.231Z,3.10
2022-08-09T16:19:07.782Z,2.88
2022-08-09T16:21:37.101Z,2.88
2022-08-09T16:24:05.933Z,2.92
2022-08-09T16:26:53.693Z,2.80
2022-08-09T16:29:37.286Z,2.65
2022-08-09T16:32:18.310Z,2.83
2022-08-09T16:34:56.550Z,3.15
2022-08-09T16:37:53.682Z,3.45
2022-08-09T16:40:20.440Z,3.28
2022-08-09T16:42:48.716Z,3.08
2022-08-09T16:45:19.810Z,2.83
2022-08-09T16:48:41.535Z,2.75
2022-08-09T16:50:39.188Z,3.05
2022-08-09T16:53:08.961Z,2.90
2022-08-09T16:55:58.290Z,2.58
2022-08-09T16:58:25.452Z,2.90
2022-08-09T17:00:53.385Z,3.10
2022-08-09T17:03:23.018Z,2.65
2022-08-09T17:06:06.615Z,3.08
2022-08-09T17:09:03.013Z,3.03
2022-08-09T17:11:40.781Z,3.05
2022-08-09T17:14:26.215Z,3.20
2022-08-09T17:17:00.059Z,3.38
2022-08-09T17:19:47.212Z,3.00
2022-08-09T17:22:24.856Z,3.20
2022-08-09T17:25:10.116Z,2.90
2022-08-09T17:27:49.618Z,3.22
2022-08-09T17:30:28.147Z,3.22
2022-08-09T17:33:01.013Z,4.00
2022-08-09T17:35:34.873Z,3.70
2022-08-09T17:38:13.179Z,3.65
2022-08-09T17:40:50.437Z,3.58
2022-08-09T17:43:33.618Z,4.43
2022-08-09T17:46:09.632Z,3.80
2022-08-09T17:48:51.594Z,4.00
2022-08-09T17:51:20.682Z,3.87
2022-08-09T17:53:53.385Z,3.55
2022-08-09T17:56:35.733Z,4.05
2022-08-09T17:59:11.946Z,3.92
2022-08-09T18:02:06.770Z,4.20
2022-08-09T18:04:31.942Z,4.18
2022-08-09T18:07:04.658Z,4.43
2022-08-09T18:09:40.576Z,4.03
2022-08-09T18:12:19.601Z,4.00
2022-08-09T18:14:54.672Z,3.83
2022-08-09T18:18:01.057Z,4.38
2022-08-09T18:20:54.252Z,4.22
2022-08-09T18:23:05.676Z,4.05
2022-08-09T18:25:53.062Z,4.35
2022-08-09T18:30:37.956Z,4.30
2022-08-09T18:31:15.375Z,4.93
2022-08-09T18:33:53.965Z,4.50
2022-08-09T18:36:26.089Z,4.70
2022-08-09T18:39:02.474Z,4.97
2022-08-09T18:41:34.327Z,4.70
2022-08-09T18:44:12.618Z,4.85
2022-08-09T18:46:50.786Z,5.20
2022-08-09T18:49:31.860Z,5.10
2022-08-09T18:52:00.162Z,4.95
2022-08-09T18:54:28.406Z,4.68
2022-08-09T18:57:06.349Z,4.97
2022-08-09T18:59:51.569Z,6.53
2022-08-09T19:02:31.645Z,5.50
2022-08-09T19:05:20.507Z,4.90
2022-08-09T19:08:04.768Z,5.93
2022-08-09T19:10:39.573Z,4.88
2022-08-09T19:13:23.022Z,5.38
2022-08-09T19:15:56.284Z,4.88
2022-08-09T19:18:35.822Z,4.97
2022-08-09T19:21:09.153Z,5.75
2022-08-09T19:24:35.866Z,4.93
2022-08-09T19:26:32.659Z,5.20
2022-08-09T19:29:15.380Z,5.05
2022-08-09T19:31:49.541Z,4.72
2022-08-09T19:34:22.828Z,5.05
2022-08-09T19:36:53.610Z,5.50
2022-08-09T19:39:43.900Z,5.00
2022-08-09T19:42:14.479Z,5.32
2022-08-09T19:44:42.946Z,5.72
2022-08-09T19:47:11.225Z,5.20
2022-08-09T19:50:09.569Z,5.30
2022-08-09T19:52:28.226Z,6.10
2022-08-09T19:54:56.074Z,5.32
2022-08-09T19:57:26.425Z,6.10
2022-08-09T19:59:59.287Z,5.93
2022-08-09T20:04:18.522Z,5.82
2022-08-09T20:05:25.265Z,5.70
2022-08-09T20:08:00.230Z,6.47
2022-08-09T20:10:34.384Z,6.75
2022-08-09T20:13:03.239Z,6.97
2022-08-09T20:16:37.626Z,6.03
2022-08-09T20:18:19.633Z,7.03
2022-08-09T20:20:47.755Z,5.88
2022-08-09T20:23:22.892Z,6.70
2022-08-09T20:25:53.562Z,7.07
2022-08-09T20:28:27.608Z,6.13
2022-08-09T20:31:05.334Z,6.30
2022-08-09T20:33:40.972Z,6.45
2022-08-09T20:36:12.035Z,6.18
2022-08-09T20:41:35.182Z,7.07
2022-08-09T20:44:10.086Z,6.90
2022-08-09T20:46:43.020Z,6.53
2022-08-09T20:49:15.842Z,7.38
2022-08-09T20:51:44.567Z,7.07
2022-08-09T20:54:18.335Z,7.50
2022-08-09T20:56:53.388Z,7.00
2022-08-09T20:59:25.044Z,6.43
2022-08-09T21:02:18.579Z,6.63
2022-08-09T21:05:56.366Z,7.50
2022-08-09T21:07:40.701Z,7.60
2022-08-09T21:10:12.116Z,6.78
2022-08-09T21:12:39.857Z,6.70
2022-08-09T21:15:12.353Z,7.40
2022-08-09T21:18:20.799Z,7.22
2022-08-09T21:20:30.122Z,6.60
2022-08-09T21:22:59.640Z,7.00
2022-08-09T21:25:55.815Z,7.30
2022-08-09T21:28:34.832Z,7.38
2022-08-09T21:31:16.704Z,7.13
2022-08-09T21:33:50.556Z,7.80
2022-08-09T21:36:27.999Z,7.32
2022-08-09T21:39:00.141Z,8.13
2022-08-09T21:42:03.590Z,8.32
2022-08-09T21:44:32.847Z,7.97
2022-08-09T21:47:08.457Z,8.15
2022-08-09T21:49:40.074Z,7.55
2022-08-09T21:52:14.998Z,7.40
2022-08-09T21:54:57.182Z,7.50
2022-08-09T21:57:38.815Z,8.25
2022-08-09T22:00:32.204Z,7.95
2022-08-09T22:03:04.487Z,8.65
2022-08-09T22:05:36.690Z,9.02
2022-08-09T22:08:13.606Z,7.90
2022-08-09T22:11:50.099Z,7.65
2022-08-09T22:13:34.874Z,7.95
2022-08-09T22:16:07.106Z,7.45
2022-08-09T22:18:54.484Z,6.75
2022-08-09T22:21:45.316Z,7.75
2022-08-09T22:24:17.226Z,8.13
2022-08-09T22:26:51.426Z,8.23
2022-08-09T22:29:24.062Z,7.65
2022-08-09T22:31:58.026Z,8.05
2022-08-09T22:34:26.843Z,7.78
2022-08-09T22:36:58.932Z,8.45
2022-08-09T22:39:55.838Z,8.20
2022-08-09T22:42:22.398Z,8.18
2022-08-09T22:45:01.568Z,7.95
2022-08-09T22:48:34.064Z,7.65
2022-08-09T22:50:30.040Z,8.10
2022-08-09T22:52:58.856Z,8.88
2022-08-09T22:55:33.730Z,8.73
2022-08-09T22:58:30.568Z,8.15
2022-08-09T23:01:02.020Z,8.20
2022-08-09T23:04:03.673Z,9.07
2022-08-09T23:06:32.665Z,8.82
2022-08-09T23:09:07.867Z,8.02
2022-08-09T23:11:36.053Z,8.27
2022-08-09T23:14:10.285Z,9.00
2022-08-09T23:16:45.494Z,9.85
2022-08-09T23:19:13.025Z,8.82
2022-08-09T23:21:40.579Z,8.70
2022-08-09T23:24:08.470Z,9.25
2022-08-09T23:26:37.220Z,8.38
2022-08-09T23:29:10.150Z,8.65
2022-08-09T23:31:38.118Z,8.63
2022-08-09T23:34:05.482Z,9.05
2022-08-09T23:36:34.383Z,9.10
2022-08-09T23:39:04.609Z,9.65
2022-08-09T23:41:32.486Z,9.77
2022-08-09T23:44:01.862Z,9.38
2022-08-09T23:46:30.401Z,9.23
2022-08-09T23:48:59.355Z,9.32
2022-08-09T23:51:27.597Z,9.10
2022-08-09T23:54:02.134Z,8.65
2022-08-09T23:56:52.631Z,9.20
2022-08-09T23:59:23.402Z,8.25
